Cinnaminson, New Jersey
Current Conditions -  °F | °C
As of 3:54 AM on Wednesday 22 Oct 2014 (Local Time) from KPNE Reporting Station
Overcast Overcast  
Wind Chill: 56°   Ceiling: 1800
Heat Index: 56°   Visibility: 10mi
Dew Point: 49°   Wind: 10mph
Humidity: 77%   Direction: 20°NNE
Pressure: 29.86"   Gusts: NA
Location:  40°N, 74.99°W
Report Text: KPNE 220754Z 02009KT 10SM OVC018 13/09 A2986 RMK AO2 SLP112 T01330094 $
Loading
Personal Weather Stations






























Interactive Weather Map
Tropical Storm Tracking
New forecast layout! Learn more

10-Day Weather Forecast

Advertisements
Track Severe Weather on mobile